sensor_id;sensor_type;location;lat;lon;timestamp;pressure;altitude;pressure_sealevel;temperature;humidity
37610;BME280;23457;51.966;8.230;2023-01-24T00:00:42;103163.56;;;3.22;98.56
37610;BME280;23457;51.966;8.230;2023-01-24T00:03:09;103161.00;;;3.33;98.12
37610;BME280;23457;51.966;8.230;2023-01-24T00:05:39;103165.63;;;3.27;98.33
37610;BME280;23457;51.966;8.230;2023-01-24T00:08:06;103162.53;;;3.51;97.17
37610;BME280;23457;51.966;8.230;2023-01-24T00:10:32;103161.09;;;3.44;97.15
37610;BME280;23457;51.966;8.230;2023-01-24T00:12:59;103159.19;;;3.52;97.34
37610;BME280;23457;51.966;8.230;2023-01-24T00:15:26;103157.38;;;3.61;96.55
37610;BME280;23457;51.966;8.230;2023-01-24T00:17:52;103156.59;;;3.62;96.50
37610;BME280;23457;51.966;8.230;2023-01-24T00:20:19;103150.06;;;3.45;96.74
37610;BME280;23457;51.966;8.230;2023-01-24T00:22:46;103151.75;;;3.24;97.15
37610;BME280;23457;51.966;8.230;2023-01-24T00:25:12;103148.16;;;3.22;97.84
37610;BME280;23457;51.966;8.230;2023-01-24T00:27:39;103152.63;;;3.05;98.54
37610;BME280;23457;51.966;8.230;2023-01-24T00:30:06;103154.44;;;3.36;98.00
37610;BME280;23457;51.966;8.230;2023-01-24T00:32:33;103150.97;;;3.36;97.67
37610;BME280;23457;51.966;8.230;2023-01-24T00:35:00;103162.03;;;3.24;98.21
37610;BME280;23457;51.966;8.230;2023-01-24T00:37:26;103156.88;;;3.24;98.05
37610;BME280;23457;51.966;8.230;2023-01-24T00:39:53;103156.75;;;3.33;97.65
37610;BME280;23457;51.966;8.230;2023-01-24T00:42:20;103144.28;;;3.38;97.74
37610;BME280;23457;51.966;8.230;2023-01-24T00:44:46;103146.88;;;3.38;97.44
37610;BME280;23457;51.966;8.230;2023-01-24T00:47:13;103145.16;;;3.18;97.51
37610;BME280;23457;51.966;8.230;2023-01-24T00:50:29;103152.38;;;3.32;98.03
37610;BME280;23457;51.966;8.230;2023-01-24T00:53:46;103153.41;;;3.44;97.91
37610;BME280;23457;51.966;8.230;2023-01-24T00:56:13;103150.72;;;3.53;97.24
37610;BME280;23457;51.966;8.230;2023-01-24T00:58:39;103152.00;;;3.48;97.14
37610;BME280;23457;51.966;8.230;2023-01-24T01:01:06;103151.22;;;3.18;97.83
37610;BME280;23457;51.966;8.230;2023-01-24T01:03:33;103155.31;;;3.47;97.02
37610;BME280;23457;51.966;8.230;2023-01-24T01:06:10;103155.06;;;3.44;97.07
37610;BME280;23457;51.966;8.230;2023-01-24T01:08:38;103146.59;;;3.45;96.98
37610;BME280;23457;51.966;8.230;2023-01-24T01:11:06;103151.72;;;3.65;96.26
37610;BME280;23457;51.966;8.230;2023-01-24T01:13:32;103153.81;;;3.39;96.50
37610;BME280;23457;51.966;8.230;2023-01-24T01:16:04;103152.50;;;3.34;97.21
37610;BME280;23457;51.966;8.230;2023-01-24T01:18:56;103154.56;;;3.48;96.72
37610;BME280;23457;51.966;8.230;2023-01-24T01:22:11;103148.28;;;3.54;96.40
37610;BME280;23457;51.966;8.230;2023-01-24T01:24:37;103147.63;;;3.47;95.75
37610;BME280;23457;51.966;8.230;2023-01-24T01:27:04;103152.75;;;3.57;96.22
37610;BME280;23457;51.966;8.230;2023-01-24T01:29:33;103146.59;;;3.45;95.70
37610;BME280;23457;51.966;8.230;2023-01-24T01:32:00;103153.16;;;3.51;96.21
37610;BME280;23457;51.966;8.230;2023-01-24T01:34:27;103151.34;;;3.50;95.94
37610;BME280;23457;51.966;8.230;2023-01-24T01:36:53;103148.94;;;3.42;96.59
37610;BME280;23457;51.966;8.230;2023-01-24T01:39:20;103139.53;;;3.52;95.66
37610;BME280;23457;51.966;8.230;2023-01-24T01:41:47;103159.31;;;3.33;96.68
37610;BME280;23457;51.966;8.230;2023-01-24T01:49:35;103148.59;;;3.69;94.86
37610;BME280;23457;51.966;8.230;2023-01-24T01:52:03;103147.63;;;3.67;94.71
37610;BME280;23457;51.966;8.230;2023-01-24T01:54:38;103147.59;;;3.57;95.24
37610;BME280;23457;51.966;8.230;2023-01-24T01:57:18;103142.09;;;3.52;94.93
37610;BME280;23457;51.966;8.230;2023-01-24T01:59:56;103141.84;;;3.49;94.94
37610;BME280;23457;51.966;8.230;2023-01-24T02:02:24;103141.56;;;3.56;95.32
37610;BME280;23457;51.966;8.230;2023-01-24T02:05:00;103148.38;;;3.56;94.40
37610;BME280;23457;51.966;8.230;2023-01-24T02:07:48;103141.72;;;3.38;95.54
37610;BME280;23457;51.966;8.230;2023-01-24T02:10:19;103136.69;;;3.19;96.17
37610;BME280;23457;51.966;8.230;2023-01-24T02:12:50;103139.28;;;3.29;96.00
37610;BME280;23457;51.966;8.230;2023-01-24T02:15:22;103132.09;;;3.25;96.17
37610;BME280;23457;51.966;8.230;2023-01-24T02:18:09;103140.03;;;3.38;94.79
37610;BME280;23457;51.966;8.230;2023-01-24T02:20:44;103136.06;;;3.21;94.72
37610;BME280;23457;51.966;8.230;2023-01-24T02:23:31;103132.06;;;3.35;94.40
37610;BME280;23457;51.966;8.230;2023-01-24T02:26:10;103133.47;;;3.32;94.00
37610;BME280;23457;51.966;8.230;2023-01-24T02:28:40;103131.44;;;3.28;94.45
37610;BME280;23457;51.966;8.230;2023-01-24T02:31:09;103127.31;;;3.30;94.27
37610;BME280;23457;51.966;8.230;2023-01-24T02:33:35;103129.34;;;3.44;93.36
37610;BME280;23457;51.966;8.230;2023-01-24T02:38:41;103128.34;;;3.52;93.35
37610;BME280;23457;51.966;8.230;2023-01-24T02:41:09;103135.69;;;3.27;93.79
37610;BME280;23457;51.966;8.230;2023-01-24T02:43:40;103132.22;;;3.27;94.14
37610;BME280;23457;51.966;8.230;2023-01-24T02:46:08;103128.09;;;3.18;93.92
37610;BME280;23457;51.966;8.230;2023-01-24T02:48:34;103123.59;;;3.26;93.12
37610;BME280;23457;51.966;8.230;2023-01-24T02:51:01;103136.56;;;3.48;92.56
37610;BME280;23457;51.966;8.230;2023-01-24T02:53:46;103120.38;;;3.39;91.89
37610;BME280;23457;51.966;8.230;2023-01-24T02:56:13;103130.03;;;3.21;92.37
37610;BME280;23457;51.966;8.230;2023-01-24T02:58:59;103122.06;;;3.08;92.41
37610;BME280;23457;51.966;8.230;2023-01-24T03:01:28;103117.81;;;3.08;92.13
37610;BME280;23457;51.966;8.230;2023-01-24T03:03:56;103115.25;;;2.98;93.17
37610;BME280;23457;51.966;8.230;2023-01-24T03:06:23;103110.50;;;3.13;91.37
37610;BME280;23457;51.966;8.230;2023-01-24T03:08:51;103115.38;;;3.20;91.37
37610;BME280;23457;51.966;8.230;2023-01-24T03:11:35;103113.84;;;3.02;91.84
37610;BME280;23457;51.966;8.230;2023-01-24T03:14:02;103121.94;;;3.16;92.03
37610;BME280;23457;51.966;8.230;2023-01-24T03:16:48;103114.09;;;3.15;91.45
37610;BME280;23457;51.966;8.230;2023-01-24T03:19:33;103115.25;;;3.18;91.41
37610;BME280;23457;51.966;8.230;2023-01-24T03:22:18;103108.28;;;3.17;91.41
37610;BME280;23457;51.966;8.230;2023-01-24T03:25:04;103102.38;;;3.18;91.47
37610;BME280;23457;51.966;8.230;2023-01-24T03:27:50;103097.50;;;3.21;91.58
37610;BME280;23457;51.966;8.230;2023-01-24T03:30:35;103098.25;;;3.51;90.75
37610;BME280;23457;51.966;8.230;2023-01-24T03:33:21;103098.16;;;3.39;90.46
37610;BME280;23457;51.966;8.230;2023-01-24T03:36:11;103100.34;;;3.24;90.89
37610;BME280;23457;51.966;8.230;2023-01-24T03:38:47;103101.09;;;3.34;90.66
37610;BME280;23457;51.966;8.230;2023-01-24T03:41:33;103110.63;;;3.14;91.31
37610;BME280;23457;51.966;8.230;2023-01-24T03:44:02;103095.97;;;3.34;91.24
37610;BME280;23457;51.966;8.230;2023-01-24T03:46:29;103107.94;;;3.23;91.34
37610;BME280;23457;51.966;8.230;2023-01-24T03:48:56;103108.81;;;3.23;91.53
37610;BME280;23457;51.966;8.230;2023-01-24T03:51:30;103109.19;;;3.18;91.03
37610;BME280;23457;51.966;8.230;2023-01-24T03:54:15;103110.09;;;3.18;90.95
37610;BME280;23457;51.966;8.230;2023-01-24T03:56:52;103115.25;;;3.29;90.63
37610;BME280;23457;51.966;8.230;2023-01-24T03:59:20;103111.66;;;3.27;91.00
37610;BME280;23457;51.966;8.230;2023-01-24T04:01:47;103111.53;;;3.25;91.41
37610;BME280;23457;51.966;8.230;2023-01-24T04:04:24;103109.59;;;3.12;91.93
37610;BME280;23457;51.966;8.230;2023-01-24T04:07:11;103098.78;;;3.06;92.00
37610;BME280;23457;51.966;8.230;2023-01-24T04:09:54;103109.19;;;3.38;91.22
37610;BME280;23457;51.966;8.230;2023-01-24T04:12:21;103114.59;;;3.41;90.74
37610;BME280;23457;51.966;8.230;2023-01-24T04:14:48;103116.66;;;3.25;91.13
37610;BME280;23457;51.966;8.230;2023-01-24T04:17:14;103113.44;;;3.17;91.38
37610;BME280;23457;51.966;8.230;2023-01-24T04:19:44;103104.31;;;3.41;91.18
37610;BME280;23457;51.966;8.230;2023-01-24T04:22:11;103113.94;;;3.44;90.67
37610;BME280;23457;51.966;8.230;2023-01-24T04:24:38;103113.28;;;3.46;90.17
37610;BME280;23457;51.966;8.230;2023-01-24T04:27:05;103116.81;;;3.27;90.81
37610;BME280;23457;51.966;8.230;2023-01-24T04:29:48;103114.72;;;3.33;90.38
37610;BME280;23457;51.966;8.230;2023-01-24T04:32:15;103119.75;;;3.21;90.94
37610;BME280;23457;51.966;8.230;2023-01-24T04:34:51;103112.69;;;3.29;90.19
37610;BME280;23457;51.966;8.230;2023-01-24T04:37:30;103116.00;;;3.38;90.38
37610;BME280;23457;51.966;8.230;2023-01-24T04:39:57;103110.88;;;3.28;90.32
37610;BME280;23457;51.966;8.230;2023-01-24T04:42:24;103111.13;;;3.51;90.09
37610;BME280;23457;51.966;8.230;2023-01-24T04:44:51;103114.19;;;3.47;89.98
37610;BME280;23457;51.966;8.230;2023-01-24T04:47:17;103113.44;;;3.38;89.70
37610;BME280;23457;51.966;8.230;2023-01-24T04:49:44;103103.41;;;3.41;90.40
37610;BME280;23457;51.966;8.230;2023-01-24T04:52:16;103112.69;;;3.29;89.82
37610;BME280;23457;51.966;8.230;2023-01-24T04:55:03;103111.13;;;3.31;89.66
37610;BME280;23457;51.966;8.230;2023-01-24T04:57:29;103105.22;;;3.42;88.93
37610;BME280;23457;51.966;8.230;2023-01-24T04:59:58;103104.31;;;3.21;89.77
37610;BME280;23457;51.966;8.230;2023-01-24T05:02:25;103100.19;;;3.33;89.55
37610;BME280;23457;51.966;8.230;2023-01-24T05:04:52;103106.38;;;3.05;90.53
37610;BME280;23457;51.966;8.230;2023-01-24T05:07:19;103105.22;;;3.11;91.40
37610;BME280;23457;51.966;8.230;2023-01-24T05:09:52;103109.97;;;3.07;90.72
37610;BME280;23457;51.966;8.230;2023-01-24T05:12:19;103113.44;;;3.07;91.22
37610;BME280;23457;51.966;8.230;2023-01-24T05:14:46;103113.22;;;3.14;90.11
37610;BME280;23457;51.966;8.230;2023-01-24T05:17:13;103111.13;;;3.31;89.78
37610;BME280;23457;51.966;8.230;2023-01-24T05:19:39;103114.72;;;3.22;90.03
37610;BME280;23457;51.966;8.230;2023-01-24T05:22:06;103116.00;;;3.07;91.12
37610;BME280;23457;51.966;8.230;2023-01-24T05:24:37;103111.53;;;3.25;90.60
37610;BME280;23457;51.966;8.230;2023-01-24T05:27:05;103110.38;;;3.01;91.76
37610;BME280;23457;51.966;8.230;2023-01-24T05:29:34;103109.34;;;2.99;92.45
37610;BME280;23457;51.966;8.230;2023-01-24T05:32:02;103120.50;;;3.30;91.34
37610;BME280;23457;51.966;8.230;2023-01-24T05:34:29;103122.69;;;3.05;91.94
37610;BME280;23457;51.966;8.230;2023-01-24T05:36:56;103113.34;;;3.16;92.17
37610;BME280;23457;51.966;8.230;2023-01-24T05:39:23;103131.19;;;3.14;92.17
37610;BME280;23457;51.966;8.230;2023-01-24T05:41:49;103120.63;;;3.21;92.30
37610;BME280;23457;51.966;8.230;2023-01-24T05:44:19;103125.03;;;3.02;92.97
37610;BME280;23457;51.966;8.230;2023-01-24T05:46:46;103121.94;;;3.16;91.73
37610;BME280;23457;51.966;8.230;2023-01-24T05:49:18;103135.00;;;3.30;91.46
37610;BME280;23457;51.966;8.230;2023-01-24T05:51:46;103125.50;;;3.18;91.81
37610;BME280;23457;51.966;8.230;2023-01-24T05:54:18;103126.44;;;3.39;91.00
37610;BME280;23457;51.966;8.230;2023-01-24T05:56:54;103125.50;;;3.49;90.69
37610;BME280;23457;51.966;8.230;2023-01-24T05:59:21;103135.53;;;3.36;91.28
37610;BME280;23457;51.966;8.230;2023-01-24T06:01:48;103142.63;;;3.28;91.36
37610;BME280;23457;51.966;8.230;2023-01-24T06:04:17;103146.84;;;2.87;92.53
37610;BME280;23457;51.966;8.230;2023-01-24T06:06:44;103152.88;;;2.87;93.48
37610;BME280;23457;51.966;8.230;2023-01-24T06:09:10;103141.19;;;3.21;92.45
37610;BME280;23457;51.966;8.230;2023-01-24T06:11:37;103151.97;;;2.97;92.82
37610;BME280;23457;51.966;8.230;2023-01-24T06:14:15;103149.25;;;2.75;93.98
37610;BME280;23457;51.966;8.230;2023-01-24T06:16:44;103154.91;;;2.92;93.88
37610;BME280;23457;51.966;8.230;2023-01-24T06:19:13;103155.09;;;3.13;93.19
37610;BME280;23457;51.966;8.230;2023-01-24T06:21:48;103166.13;;;3.22;92.83
37610;BME280;23457;51.966;8.230;2023-01-24T06:24:24;103166.13;;;3.02;93.86
37610;BME280;23457;51.966;8.230;2023-01-24T06:27:22;103170.59;;;2.95;94.15
37610;BME280;23457;51.966;8.230;2023-01-24T06:29:49;103167.13;;;2.94;93.49
37610;BME280;23457;51.966;8.230;2023-01-24T06:32:35;103163.78;;;2.95;93.17
37610;BME280;23457;51.966;8.230;2023-01-24T06:37:51;103165.88;;;3.19;92.18
37610;BME280;23457;51.966;8.230;2023-01-24T06:40:21;103171.81;;;3.29;91.39
37610;BME280;23457;51.966;8.230;2023-01-24T06:42:50;103172.03;;;3.21;91.95
37610;BME280;23457;51.966;8.230;2023-01-24T06:45:17;103174.88;;;3.14;92.29
37610;BME280;23457;51.966;8.230;2023-01-24T06:47:44;103173.34;;;3.37;91.72
37610;BME280;23457;51.966;8.230;2023-01-24T06:50:21;103172.94;;;3.42;91.36
37610;BME280;23457;51.966;8.230;2023-01-24T06:52:49;103174.75;;;3.33;91.86
37610;BME280;23457;51.966;8.230;2023-01-24T06:55:16;103175.09;;;2.97;93.69
37610;BME280;23457;51.966;8.230;2023-01-24T06:57:42;103173.22;;;3.25;93.33
37610;BME280;23457;51.966;8.230;2023-01-24T07:00:10;103180.53;;;3.41;92.21
37610;BME280;23457;51.966;8.230;2023-01-24T07:02:37;103178.47;;;3.37;92.32
37610;BME280;23457;51.966;8.230;2023-01-24T07:05:04;103182.31;;;3.11;93.50
37610;BME280;23457;51.966;8.230;2023-01-24T07:07:31;103181.28;;;3.19;94.03
37610;BME280;23457;51.966;8.230;2023-01-24T07:09:57;103181.94;;;3.27;93.27
37610;BME280;23457;51.966;8.230;2023-01-24T07:12:24;103184.06;;;2.92;94.49
37610;BME280;23457;51.966;8.230;2023-01-24T07:14:51;103173.56;;;3.19;93.91
37610;BME280;23457;51.966;8.230;2023-01-24T07:17:17;103181.06;;;3.16;93.98
37610;BME280;23457;51.966;8.230;2023-01-24T07:19:44;103174.38;;;3.29;93.64
37610;BME280;23457;51.966;8.230;2023-01-24T07:22:12;103184.91;;;3.42;93.21
37610;BME280;23457;51.966;8.230;2023-01-24T07:24:39;103186.94;;;3.36;93.26
37610;BME280;23457;51.966;8.230;2023-01-24T07:27:07;103187.72;;;3.24;93.52
37610;BME280;23457;51.966;8.230;2023-01-24T07:29:34;103190.69;;;3.39;93.25
37610;BME280;23457;51.966;8.230;2023-01-24T07:32:00;103185.28;;;3.36;92.95
37610;BME280;23457;51.966;8.230;2023-01-24T07:34:27;103198.25;;;3.48;92.78
37610;BME280;23457;51.966;8.230;2023-01-24T07:36:54;103199.03;;;3.57;92.52
37610;BME280;23457;51.966;8.230;2023-01-24T07:39:20;103206.75;;;3.27;92.12
37610;BME280;23457;51.966;8.230;2023-01-24T07:41:47;103203.13;;;3.14;92.59
37610;BME280;23457;51.966;8.230;2023-01-24T07:44:14;103208.91;;;3.02;92.61
37610;BME280;23457;51.966;8.230;2023-01-24T07:46:41;103210.84;;;3.14;92.87
37610;BME280;23457;51.966;8.230;2023-01-24T07:49:08;103207.50;;;3.15;92.91
37610;BME280;23457;51.966;8.230;2023-01-24T07:51:34;103221.63;;;3.20;92.73
37610;BME280;23457;51.966;8.230;2023-01-24T07:54:02;103220.22;;;3.24;92.75
37610;BME280;23457;51.966;8.230;2023-01-24T07:56:29;103220.09;;;3.43;91.68
37610;BME280;23457;51.966;8.230;2023-01-24T07:58:57;103221.41;;;3.28;91.21
37610;BME280;23457;51.966;8.230;2023-01-24T08:01:24;103214.19;;;3.34;91.13
37610;BME280;23457;51.966;8.230;2023-01-24T08:03:55;103218.34;;;3.42;90.88
37610;BME280;23457;51.966;8.230;2023-01-24T08:06:23;103216.63;;;3.32;91.38
37610;BME280;23457;51.966;8.230;2023-01-24T08:08:50;103217.41;;;3.21;91.40
37610;BME280;23457;51.966;8.230;2023-01-24T08:11:17;103211.00;;;3.26;91.92
37610;BME280;23457;51.966;8.230;2023-01-24T08:13:44;103220.22;;;3.14;92.78
37610;BME280;23457;51.966;8.230;2023-01-24T08:16:10;103214.81;;;3.11;92.06
37610;BME280;23457;51.966;8.230;2023-01-24T08:18:38;103226.28;;;3.35;92.06
37610;BME280;23457;51.966;8.230;2023-01-24T08:21:05;103224.47;;;3.34;91.86
37610;BME280;23457;51.966;8.230;2023-01-24T08:23:33;103234.53;;;3.51;91.94
37610;BME280;23457;51.966;8.230;2023-01-24T08:26:01;103233.22;;;3.56;91.73
37610;BME280;23457;51.966;8.230;2023-01-24T08:28:28;103229.63;;;3.34;92.58
37610;BME280;23457;51.966;8.230;2023-01-24T08:30:57;103229.34;;;3.20;93.70
37610;BME280;23457;51.966;8.230;2023-01-24T08:33:24;103230.66;;;3.36;92.67
37610;BME280;23457;51.966;8.230;2023-01-24T08:35:52;103234.47;;;3.20;93.04
37610;BME280;23457;51.966;8.230;2023-01-24T08:38:18;103235.53;;;3.22;93.21
37610;BME280;23457;51.966;8.230;2023-01-24T08:40:45;103244.19;;;3.04;93.87
37610;BME280;23457;51.966;8.230;2023-01-24T08:43:16;103245.69;;;3.31;93.39
37610;BME280;23457;51.966;8.230;2023-01-24T08:45:43;103251.81;;;3.13;93.24
37610;BME280;23457;51.966;8.230;2023-01-24T08:48:10;103247.59;;;3.23;93.29
37610;BME280;23457;51.966;8.230;2023-01-24T08:50:37;103245.03;;;3.23;92.76
37610;BME280;23457;51.966;8.230;2023-01-24T08:53:03;103250.19;;;3.34;91.59
37610;BME280;23457;51.966;8.230;2023-01-24T08:55:31;103247.88;;;3.16;93.11
37610;BME280;23457;51.966;8.230;2023-01-24T08:58:00;103253.50;;;3.12;92.86
37610;BME280;23457;51.966;8.230;2023-01-24T09:00:26;103245.19;;;2.76;93.28
37610;BME280;23457;51.966;8.230;2023-01-24T09:02:53;103262.25;;;3.14;92.92
37610;BME280;23457;51.966;8.230;2023-01-24T09:05:20;103257.16;;;2.96;92.25
37610;BME280;23457;51.966;8.230;2023-01-24T09:07:47;103260.38;;;2.93;93.29
37610;BME280;23457;51.966;8.230;2023-01-24T09:10:14;103263.91;;;3.04;92.77
37610;BME280;23457;51.966;8.230;2023-01-24T09:12:40;103262.59;;;3.09;92.89
37610;BME280;23457;51.966;8.230;2023-01-24T09:15:07;103264.03;;;3.15;92.17
37610;BME280;23457;51.966;8.230;2023-01-24T09:17:34;103271.50;;;3.22;92.43
37610;BME280;23457;51.966;8.230;2023-01-24T09:20:01;103271.06;;;3.08;92.54
37610;BME280;23457;51.966;8.230;2023-01-24T09:22:28;103270.75;;;3.44;91.94
37610;BME280;23457;51.966;8.230;2023-01-24T09:24:54;103268.03;;;3.32;92.43
37610;BME280;23457;51.966;8.230;2023-01-24T09:27:21;103268.94;;;3.43;92.95
37610;BME280;23457;51.966;8.230;2023-01-24T09:29:48;103274.47;;;3.27;91.54
37610;BME280;23457;51.966;8.230;2023-01-24T09:32:14;103276.38;;;2.80;92.54
37610;BME280;23457;51.966;8.230;2023-01-24T09:34:43;103271.97;;;3.08;93.40
37610;BME280;23457;51.966;8.230;2023-01-24T09:37:19;103275.53;;;2.90;92.75
37610;BME280;23457;51.966;8.230;2023-01-24T09:39:47;103281.69;;;2.92;92.83
37610;BME280;23457;51.966;8.230;2023-01-24T09:50:04;103280.56;;;2.99;92.81
37610;BME280;23457;51.966;8.230;2023-01-24T09:52:41;103271.41;;;2.92;92.67
37610;BME280;23457;51.966;8.230;2023-01-24T09:55:13;103283.59;;;3.23;91.58
37610;BME280;23457;51.966;8.230;2023-01-24T09:57:58;103279.84;;;3.20;91.79
37610;BME280;23457;51.966;8.230;2023-01-24T10:00:33;103288.63;;;2.93;92.45
37610;BME280;23457;51.966;8.230;2023-01-24T10:03:04;103288.19;;;3.17;91.66
37610;BME280;23457;51.966;8.230;2023-01-24T10:05:40;103286.94;;;2.94;91.78
37610;BME280;23457;51.966;8.230;2023-01-24T10:08:33;103283.09;;;3.28;91.13
37610;BME280;23457;51.966;8.230;2023-01-24T10:24:59;103279.09;;;2.82;92.96
37610;BME280;23457;51.966;8.230;2023-01-24T10:27:35;103277.28;;;2.81;93.05
37610;BME280;23457;51.966;8.230;2023-01-24T10:30:14;103280.66;;;2.61;93.00
37610;BME280;23457;51.966;8.230;2023-01-24T10:32:43;103272.38;;;3.03;91.50
37610;BME280;23457;51.966;8.230;2023-01-24T10:35:22;103272.44;;;2.94;92.14
37610;BME280;23457;51.966;8.230;2023-01-24T10:37:53;103263.16;;;3.15;91.95
37610;BME280;23457;51.966;8.230;2023-01-24T10:40:24;103265.75;;;3.35;90.70
37610;BME280;23457;51.966;8.230;2023-01-24T10:42:51;103265.59;;;3.34;91.70
37610;BME280;23457;51.966;8.230;2023-01-24T10:50:45;103261.47;;;3.15;90.24
37610;BME280;23457;51.966;8.230;2023-01-24T10:55:58;103247.13;;;3.78;88.31
37610;BME280;23457;51.966;8.230;2023-01-24T10:58:26;103254.31;;;3.82;87.08
37610;BME280;23457;51.966;8.230;2023-01-24T11:00:59;103253.94;;;3.88;87.16
37610;BME280;23457;51.966;8.230;2023-01-24T11:03:29;103247.13;;;3.88;86.65
37610;BME280;23457;51.966;8.230;2023-01-24T11:05:57;103248.53;;;4.05;85.05
37610;BME280;23457;51.966;8.230;2023-01-24T11:08:26;103245.03;;;4.05;85.37
37610;BME280;23457;51.966;8.230;2023-01-24T11:10:58;103244.00;;;4.03;84.32
37610;BME280;23457;51.966;8.230;2023-01-24T11:13:38;103239.41;;;3.88;84.82
37610;BME280;23457;51.966;8.230;2023-01-24T11:18:48;103242.88;;;4.31;84.94
37610;BME280;23457;51.966;8.230;2023-01-24T11:21:18;103244.53;;;3.99;85.08
37610;BME280;23457;51.966;8.230;2023-01-24T11:23:45;103241.56;;;3.84;85.46
37610;BME280;23457;51.966;8.230;2023-01-24T11:34:48;103232.84;;;3.62;86.88
37610;BME280;23457;51.966;8.230;2023-01-24T11:40:38;103227.97;;;3.65;87.24
37610;BME280;23457;51.966;8.230;2023-01-24T11:48:44;103219.88;;;3.50;90.04
37610;BME280;23457;51.966;8.230;2023-01-24T11:57:02;103213.72;;;4.20;85.63
37610;BME280;23457;51.966;8.230;2023-01-24T11:59:36;103213.56;;;4.29;85.12
37610;BME280;23457;51.966;8.230;2023-01-24T12:13:24;103199.72;;;4.07;84.85
37610;BME280;23457;51.966;8.230;2023-01-24T12:21:12;103192.25;;;4.10;84.70
37610;BME280;23457;51.966;8.230;2023-01-24T12:26:28;103192.22;;;4.20;85.01
37610;BME280;23457;51.966;8.230;2023-01-24T12:29:36;103185.72;;;3.93;85.05
37610;BME280;23457;51.966;8.230;2023-01-24T12:32:13;103187.31;;;3.91;85.90
37610;BME280;23457;51.966;8.230;2023-01-24T12:34:52;103183.59;;;3.77;86.69
37610;BME280;23457;51.966;8.230;2023-01-24T12:37:30;103176.31;;;4.14;85.78
37610;BME280;23457;51.966;8.230;2023-01-24T12:42:56;103170.41;;;4.05;84.27
37610;BME280;23457;51.966;8.230;2023-01-24T12:45:34;103170.44;;;3.84;83.98
37610;BME280;23457;51.966;8.230;2023-01-24T12:50:59;103161.13;;;4.07;83.71
37610;BME280;23457;51.966;8.230;2023-01-24T12:53:41;103157.72;;;3.86;84.20
37610;BME280;23457;51.966;8.230;2023-01-24T12:56:23;103162.75;;;3.74;84.94
37610;BME280;23457;51.966;8.230;2023-01-24T12:58:52;103163.16;;;3.79;85.31
37610;BME280;23457;51.966;8.230;2023-01-24T13:01:30;103164.16;;;3.91;85.18
37610;BME280;23457;51.966;8.230;2023-01-24T13:12:59;103147.88;;;4.12;83.26
37610;BME280;23457;51.966;8.230;2023-01-24T13:35:21;103123.50;;;4.19;83.24
37610;BME280;23457;51.966;8.230;2023-01-24T13:38:27;103155.88;;;4.37;82.04
37610;BME280;23457;51.966;8.230;2023-01-24T13:41:43;103120.41;;;3.91;82.87
37610;BME280;23457;51.966;8.230;2023-01-24T13:47:59;103147.25;;;3.94;83.41
37610;BME280;23457;51.966;8.230;2023-01-24T13:54:43;103127.91;;;4.10;83.01
37610;BME280;23457;51.966;8.230;2023-01-24T14:01:48;103146.69;;;3.56;83.73
37610;BME280;23457;51.966;8.230;2023-01-24T14:04:44;103135.00;;;3.60;85.00
37610;BME280;23457;51.966;8.230;2023-01-24T14:07:19;103155.91;;;3.85;83.82
37610;BME280;23457;51.966;8.230;2023-01-24T14:10:08;103130.34;;;3.76;83.18
37610;BME280;23457;51.966;8.230;2023-01-24T14:16:12;103166.84;;;3.82;83.32
37610;BME280;23457;51.966;8.230;2023-01-24T14:18:49;103163.59;;;4.05;82.86
37610;BME280;23457;51.966;8.230;2023-01-24T14:29:45;103159.59;;;3.36;84.39
37610;BME280;23457;51.966;8.230;2023-01-24T14:39:32;103177.03;;;3.30;85.20
37610;BME280;23457;51.966;8.230;2023-01-24T14:42:01;103176.16;;;3.40;86.20
37610;BME280;23457;51.966;8.230;2023-01-24T14:47:01;103177.44;;;3.65;85.17
37610;BME280;23457;51.966;8.230;2023-01-24T14:49:34;103174.06;;;3.76;84.28
37610;BME280;23457;51.966;8.230;2023-01-24T14:52:12;103165.56;;;3.87;84.62
37610;BME280;23457;51.966;8.230;2023-01-24T14:54:46;103174.22;;;3.57;84.94
37610;BME280;23457;51.966;8.230;2023-01-24T14:57:34;103178.97;;;3.63;84.33
37610;BME280;23457;51.966;8.230;2023-01-24T15:00:04;103182.69;;;3.77;83.96
37610;BME280;23457;51.966;8.230;2023-01-24T15:02:33;103173.84;;;3.43;85.85
37610;BME280;23457;51.966;8.230;2023-01-24T15:05:00;103170.22;;;3.20;87.08
37610;BME280;23457;51.966;8.230;2023-01-24T15:07:26;103177.44;;;3.45;85.78
37610;BME280;23457;51.966;8.230;2023-01-24T15:09:53;103179.09;;;3.75;85.19
37610;BME280;23457;51.966;8.230;2023-01-24T15:14:49;103180.00;;;3.45;86.00
37610;BME280;23457;51.966;8.230;2023-01-24T15:17:21;103165.63;;;3.37;86.85
37610;BME280;23457;51.966;8.230;2023-01-24T15:19:50;103174.59;;;3.62;85.46
37610;BME280;23457;51.966;8.230;2023-01-24T15:22:21;103181.03;;;3.47;85.70
37610;BME280;23457;51.966;8.230;2023-01-24T15:24:56;103172.16;;;3.43;86.09
37610;BME280;23457;51.966;8.230;2023-01-24T15:35:31;103169.47;;;3.52;85.98
37610;BME280;23457;51.966;8.230;2023-01-24T15:40:44;103166.91;;;3.52;85.66
37610;BME280;23457;51.966;8.230;2023-01-24T15:49:02;103165.84;;;2.89;86.70
37610;BME280;23457;51.966;8.230;2023-01-24T15:51:35;103156.22;;;2.86;87.44
37610;BME280;23457;51.966;8.230;2023-01-24T15:54:09;103159.56;;;3.06;87.53
37610;BME280;23457;51.966;8.230;2023-01-24T15:56:38;103153.91;;;3.10;86.44
37610;BME280;23457;51.966;8.230;2023-01-24T15:59:17;103166.00;;;3.01;87.03
37610;BME280;23457;51.966;8.230;2023-01-24T16:01:45;103156.34;;;2.98;86.43
37610;BME280;23457;51.966;8.230;2023-01-24T16:04:13;103156.88;;;3.14;86.02
37610;BME280;23457;51.966;8.230;2023-01-24T16:06:41;103156.50;;;3.10;85.84
37610;BME280;23457;51.966;8.230;2023-01-24T16:09:08;103161.97;;;2.84;86.70
37610;BME280;23457;51.966;8.230;2023-01-24T16:11:36;103157.88;;;3.06;86.26
37610;BME280;23457;51.966;8.230;2023-01-24T16:14:04;103154.03;;;3.32;85.28
37610;BME280;23457;51.966;8.230;2023-01-24T16:16:32;103150.72;;;3.22;85.03